createdAt,value
2019-04-24T00:00:39.418Z,22
2019-04-24T00:10:35.421Z,26
2019-04-24T00:20:43.322Z,23
2019-04-24T00:25:37.839Z,27
2019-04-24T00:30:38.322Z,23
2019-04-24T00:36:09.783Z,25
2019-04-24T00:40:58.063Z,27
2019-04-24T00:45:36.517Z,29
2019-04-24T00:51:06.084Z,25
2019-04-24T00:56:03.260Z,29
2019-04-24T01:01:02.273Z,24
2019-04-24T01:06:01.340Z,28
2019-04-24T01:11:00.837Z,26
2019-04-24T01:16:15.483Z,27
2019-04-24T01:20:59.536Z,28
2019-04-24T01:26:07.925Z,27
2019-04-24T01:41:25.893Z,27
2019-04-24T01:46:22.330Z,32
2019-04-24T01:51:29.018Z,27
2019-04-24T01:56:37.998Z,30
2019-04-24T02:01:28.313Z,27
2019-04-24T02:06:23.082Z,31
2019-04-24T02:16:27.473Z,27
2019-04-24T02:21:40.351Z,32
2019-04-24T02:26:31.262Z,30
2019-04-24T02:36:43.418Z,25
2019-04-24T03:07:17.666Z,34
2019-04-24T03:12:33.900Z,35
2019-04-24T03:27:35.211Z,28
2019-04-24T03:37:41.913Z,31
2019-04-24T03:47:35.960Z,34
2019-04-24T03:52:21.774Z,36
2019-04-24T03:57:43.889Z,38
2019-04-24T04:02:25.084Z,37
2019-04-24T04:07:28.945Z,38
2019-04-24T04:27:46.721Z,40
2019-04-24T04:42:57.989Z,41
2019-04-24T04:48:05.377Z,34
2019-04-24T04:58:05.128Z,29
2019-04-24T05:03:03.680Z,35
2019-04-24T05:08:12.800Z,36
2019-04-24T05:18:10.700Z,32
2019-04-24T05:23:02.879Z,37
2019-04-24T05:28:12.913Z,30
2019-04-24T05:33:15.455Z,31
2019-04-24T05:38:18.002Z,31
2019-04-24T05:43:26.340Z,30
2019-04-24T05:53:16.542Z,32
2019-04-24T05:58:22.108Z,36
2019-04-24T06:03:29.679Z,32
2019-04-24T06:08:24.850Z,33
2019-04-24T06:13:37.267Z,30
2019-04-24T06:33:49.110Z,30
2019-04-24T06:38:52.966Z,27
2019-04-24T06:43:51.794Z,27
2019-04-24T06:58:45.266Z,29
2019-04-24T07:09:13.746Z,29
2019-04-24T07:18:52.505Z,24
2019-04-24T07:24:07.564Z,25
2019-04-24T07:29:03.506Z,25
2019-04-24T07:34:21.335Z,21
2019-04-24T07:39:07.008Z,25
2019-04-24T07:44:19.663Z,23
2019-04-24T07:59:39.637Z,23
2019-04-24T08:04:26.192Z,19
2019-04-24T08:09:34.949Z,19
2019-04-24T08:14:55.324Z,20
2019-04-24T08:19:43.320Z,22
2019-04-24T08:29:44.681Z,19
2019-04-24T08:49:50.101Z,18
2019-04-24T08:54:51.569Z,18
2019-04-24T08:59:58.195Z,15
2019-04-24T09:10:06.823Z,15
2019-04-24T09:14:47.361Z,15
2019-04-24T09:25:02.384Z,14
2019-04-24T09:30:14.798Z,14
2019-04-24T09:35:27.358Z,12
2019-04-24T09:40:35.726Z,13
2019-04-24T09:50:14.897Z,14
2019-04-24T09:55:14.299Z,14
2019-04-24T10:00:12.633Z,14
2019-04-24T10:05:53.801Z,16
2019-04-24T10:10:21.730Z,15
2019-04-24T10:15:15.557Z,13
2019-04-24T10:20:23.717Z,13
2019-04-24T10:30:42.351Z,13
2019-04-24T10:40:38.935Z,14
2019-04-24T10:45:36.319Z,12
2019-04-24T10:50:48.841Z,13
2019-04-24T10:55:53.032Z,13
2019-04-24T11:00:51.458Z,12
2019-04-24T11:16:07.791Z,11
2019-04-24T11:21:22.803Z,11
2019-04-24T11:31:04.472Z,11
2019-04-24T11:36:09.431Z,9
2019-04-24T11:41:07.073Z,9
2019-04-24T11:46:09.718Z,10
2019-04-24T11:51:24.437Z,12
2019-04-24T11:56:19.795Z,10
2019-04-24T12:01:01.661Z,11
2019-04-24T12:21:25.841Z,12
2019-04-24T12:26:21.479Z,11
2019-04-24T12:31:26.203Z,11
2019-04-24T12:36:28.916Z,11
2019-04-24T12:41:30.912Z,12
2019-04-24T12:46:44.835Z,11
2019-04-24T12:51:47.466Z,12
2019-04-24T13:01:49.893Z,12
2019-04-24T13:06:30.182Z,13
2019-04-24T13:11:57.372Z,13
2019-04-24T13:21:35.639Z,15
2019-04-24T13:32:04.582Z,15
2019-04-24T13:37:08.119Z,14
2019-04-24T13:42:07.499Z,14
2019-04-24T13:47:08.889Z,16
2019-04-24T13:52:36.803Z,14
2019-04-24T13:57:14.033Z,15
2019-04-24T14:02:24.366Z,14
2019-04-24T14:17:23.027Z,15
2019-04-24T14:22:18.224Z,16
2019-04-24T14:32:36.247Z,15
2019-04-24T14:37:31.753Z,16
2019-04-24T14:42:38.618Z,16
2019-04-24T14:47:37.212Z,17
2019-04-24T14:52:41.397Z,19
2019-04-24T14:57:43.554Z,15
2019-04-24T15:02:48.793Z,15
2019-04-24T15:07:54.636Z,17
2019-04-24T15:13:02.176Z,13
2019-04-24T15:22:57.706Z,15
2019-04-24T15:33:02.975Z,19
2019-04-24T15:38:01.813Z,18
2019-04-24T15:43:09.145Z,19
2019-04-24T15:48:16.522Z,18
2019-04-24T15:52:41.224Z,17
2019-04-24T15:57:45.379Z,18
2019-04-24T16:07:48.679Z,19
2019-04-24T16:12:51.040Z,21
2019-04-24T16:23:20.370Z,19
2019-04-24T16:28:20.980Z,19
2019-04-24T16:43:25.594Z,19
2019-04-24T16:58:40.868Z,20
2019-04-24T17:08:47.401Z,21
2019-04-24T17:24:33.936Z,21
2019-04-24T17:34:01.563Z,20
2019-04-24T17:38:32.807Z,19
2019-04-24T17:44:10.332Z,19
2019-04-24T17:58:42.698Z,20
2019-04-24T18:03:45.143Z,19
2019-04-24T18:08:47.589Z,18
2019-04-24T18:13:50.069Z,17
2019-04-24T18:18:52.508Z,18
2019-04-24T18:23:54.958Z,17
2019-04-24T18:28:57.416Z,15
2019-04-24T18:33:59.982Z,17
2019-04-24T18:39:02.395Z,16
2019-04-24T18:44:04.880Z,15
2019-04-24T18:49:07.592Z,16
2019-04-24T18:54:09.719Z,14
2019-04-24T18:59:12.548Z,14
2019-04-24T19:04:15.125Z,16
2019-04-24T19:09:17.358Z,17
2019-04-24T19:14:19.592Z,14
2019-04-24T19:19:22.008Z,13
2019-04-24T19:24:25.144Z,14
2019-04-24T19:29:26.943Z,16
2019-04-24T19:34:29.419Z,12
2019-04-24T19:39:32.157Z,9
2019-04-24T19:44:34.350Z,12
2019-04-24T19:49:36.782Z,11
2019-04-24T19:54:39.282Z,12
2019-04-24T19:59:41.729Z,10
2019-04-24T20:04:44.103Z,14
2019-04-24T20:09:46.634Z,13
2019-04-24T20:14:49.031Z,11
2019-04-24T20:19:51.734Z,10
2019-04-24T20:24:53.929Z,13
2019-04-24T20:29:56.399Z,10
2019-04-24T20:34:58.845Z,9
2019-04-24T20:40:01.884Z,10
2019-04-24T20:45:03.841Z,13
2019-04-24T20:50:06.282Z,12
2019-04-24T20:55:08.741Z,13
2019-04-24T21:00:11.567Z,12
2019-04-24T21:05:13.704Z,9
2019-04-24T21:10:16.080Z,13
2019-04-24T21:15:19.145Z,10
2019-04-24T21:25:24.445Z,12
2019-04-24T21:30:25.987Z,10
2019-04-24T21:35:28.621Z,11
2019-04-24T21:40:32.171Z,15
2019-04-24T21:45:33.257Z,12
2019-04-24T21:55:38.320Z,9
2019-04-24T22:00:41.043Z,10
2019-04-24T22:05:43.110Z,13
2019-04-24T22:10:45.543Z,17
2019-04-24T22:15:48.083Z,12
2019-04-24T22:20:51.570Z,22
2019-04-24T22:25:52.924Z,13
2019-04-24T22:30:55.374Z,15
2019-04-24T22:35:57.841Z,10
2019-04-24T22:41:00.302Z,12
2019-04-24T22:46:02.778Z,13
2019-04-24T22:51:05.295Z,9
2019-04-24T22:56:08.339Z,6
2019-04-24T23:01:10.211Z,7
2019-04-24T23:06:12.887Z,3
2019-04-24T23:11:15.071Z,1
2019-04-24T23:16:17.612Z,4
2019-04-24T23:21:28.530Z,3
2019-04-24T23:26:22.444Z,3
2019-04-24T23:31:25.255Z,4
2019-04-24T23:36:27.372Z,3
2019-04-24T23:41:29.784Z,4
2019-04-24T23:46:32.273Z,3
2019-04-24T23:51:35.066Z,2
2019-04-24T23:56:37.637Z,1
